createdAt,value
2022-11-12T00:01:39.649Z,99070.77
2022-11-12T00:04:25.962Z,99069.14
2022-11-12T00:07:12.174Z,99059.94
2022-11-12T00:09:58.299Z,99055.34
2022-11-12T00:12:45.559Z,99057.78
2022-11-12T00:15:31.687Z,99055.34
2022-11-12T00:18:17.697Z,99051.59
2022-11-12T00:21:04.414Z,99052.97
2022-11-12T00:23:50.756Z,99048.67
2022-11-12T00:26:36.805Z,99047.08
2022-11-12T00:29:22.653Z,99050.05
2022-11-12T00:32:09.431Z,99054.38
2022-11-12T00:34:55.236Z,99053.32
2022-11-12T00:37:41.259Z,99051.97
2022-11-12T00:40:27.388Z,99054.13
2022-11-12T00:43:13.569Z,99050.62
2022-11-12T00:46:00.003Z,99048.98
2022-11-12T00:48:45.699Z,99044.41
2022-11-12T00:51:32.049Z,99045.75
2022-11-12T00:54:18.054Z,99054.67
2022-11-12T00:57:04.155Z,99055.45
2022-11-12T00:59:50.169Z,99055.73
2022-11-12T01:02:42.365Z,99045.45
2022-11-12T01:05:23.564Z,99045.69
2022-11-12T01:08:09.449Z,99039.20
2022-11-12T01:10:55.844Z,99035.64
2022-11-12T01:13:45.903Z,99026.44
2022-11-12T01:16:39.381Z,99029.95
2022-11-12T01:19:25.566Z,99037.48
2022-11-12T01:22:11.660Z,99028.57
2022-11-12T01:24:58.019Z,99038.84
2022-11-12T01:27:44.470Z,99038.26
2022-11-12T01:30:30.211Z,99035.30
2022-11-12T01:33:16.066Z,99038.80
2022-11-12T01:36:02.292Z,99037.22
2022-11-12T01:38:48.646Z,99045.08
2022-11-12T01:41:38.451Z,99039.95
2022-11-12T01:44:29.550Z,99038.63
2022-11-12T01:47:20.610Z,99039.97
2022-11-12T01:50:27.204Z,99044.59
2022-11-12T01:53:14.001Z,99050.83
2022-11-12T01:56:02.480Z,99042.75
2022-11-12T01:58:52.502Z,99035.44
2022-11-12T02:01:39.241Z,99033.02
2022-11-12T02:04:27.325Z,99030.34
2022-11-12T02:07:13.602Z,99026.83
2022-11-12T02:10:04.618Z,99023.89
2022-11-12T02:13:11.951Z,99022.82
2022-11-12T02:15:58.663Z,99021.98
2022-11-12T02:18:44.995Z,99021.19
2022-11-12T02:21:31.145Z,99015.78
2022-11-12T02:24:22.760Z,99006.05
2022-11-12T02:27:11.311Z,99009.30
2022-11-12T02:29:57.051Z,99013.09
2022-11-12T02:32:42.927Z,99009.84
2022-11-12T02:35:29.483Z,99012.54
2022-11-12T02:38:15.381Z,99015.80
2022-11-12T02:41:01.498Z,99022.02
2022-11-12T02:43:47.674Z,99031.48
2022-11-12T02:46:34.015Z,99032.84
2022-11-12T02:49:19.810Z,99040.67
2022-11-12T02:52:06.149Z,99033.39
2022-11-12T02:54:51.920Z,99035.50
2022-11-12T02:57:39.171Z,99042.54
2022-11-12T03:00:24.988Z,99050.08
2022-11-12T03:03:11.312Z,99050.63
2022-11-12T03:06:01.821Z,99052.51
2022-11-12T03:08:47.797Z,99056.03
2022-11-12T03:11:33.689Z,99057.92
2022-11-12T03:14:19.739Z,99055.48
2022-11-12T03:17:06.203Z,99064.92
2022-11-12T03:19:52.017Z,99071.11
2022-11-12T03:22:39.078Z,99064.37
2022-11-12T03:25:27.063Z,99064.92
2022-11-12T03:28:15.833Z,99061.97
2022-11-12T03:31:02.316Z,99059.25
2022-11-12T03:33:48.577Z,99061.70
2022-11-12T03:36:34.386Z,99065.77
2022-11-12T03:39:20.395Z,99067.12
2022-11-12T03:42:06.815Z,99062.53
2022-11-12T03:44:53.101Z,99060.34
2022-11-12T03:47:46.191Z,99063.30
2022-11-12T03:50:31.995Z,99064.09
2022-11-12T03:53:18.201Z,99068.67
2022-11-12T03:56:04.778Z,99070.29
2022-11-12T03:58:51.239Z,99060.83
2022-11-12T04:01:37.703Z,99069.45
2022-11-12T04:04:25.535Z,99060.80
2022-11-12T04:07:29.654Z,99065.43
2022-11-12T04:10:16.192Z,99069.73
2022-11-12T04:13:20.299Z,99068.12
2022-11-12T04:16:37.922Z,99071.11
2022-11-12T04:19:41.970Z,99075.16
2022-11-12T04:22:28.528Z,99074.62
2022-11-12T04:25:33.641Z,99076.00
2022-11-12T04:28:19.441Z,99076.27
2022-11-12T04:31:05.924Z,99072.50
2022-11-12T04:33:51.969Z,99061.97
2022-11-12T04:36:38.334Z,99062.53
2022-11-12T04:39:24.155Z,99064.69
2022-11-12T04:42:29.804Z,99065.75
2022-11-12T04:45:16.316Z,99059.57
2022-11-12T04:48:02.831Z,99065.77
2022-11-12T04:50:53.730Z,99054.70
2022-11-12T04:53:39.488Z,99053.59
2022-11-12T04:56:25.586Z,99061.14
2022-11-12T04:59:11.913Z,99058.70
2022-11-12T05:01:58.098Z,99061.97
2022-11-12T05:04:44.543Z,99065.46
2022-11-12T05:07:33.370Z,99060.07
2022-11-12T05:10:19.464Z,99061.69
2022-11-12T05:13:04.871Z,99061.42
2022-11-12T05:15:51.130Z,99060.60
2022-11-12T05:18:37.313Z,99066.00
2022-11-12T05:21:43.643Z,99074.91
2022-11-12T05:24:41.553Z,99069.77
2022-11-12T05:27:21.353Z,99079.74
2022-11-12T05:30:08.714Z,99084.29
2022-11-12T05:32:54.718Z,99086.41
2022-11-12T05:35:40.629Z,99086.92
2022-11-12T05:38:27.051Z,99094.95
2022-11-12T05:41:18.756Z,99101.41
2022-11-12T05:44:01.362Z,99103.26
2022-11-12T05:46:48.423Z,99104.55
2022-11-12T05:49:34.387Z,99105.62
2022-11-12T05:52:20.055Z,99106.13
2022-11-12T05:55:07.034Z,99109.91
2022-11-12T05:57:52.744Z,99115.02
2022-11-12T06:00:39.325Z,99109.91
2022-11-12T06:03:25.807Z,99115.83
2022-11-12T06:06:11.801Z,99118.01
2022-11-12T06:08:57.863Z,99117.49
2022-11-12T06:11:43.811Z,99120.48
2022-11-12T06:14:30.351Z,99123.73
2022-11-12T06:17:16.705Z,99109.72
2022-11-12T06:20:03.166Z,99115.41
2022-11-12T06:22:50.102Z,99120.27
2022-11-12T06:25:36.372Z,99120.02
2022-11-12T06:28:22.522Z,99119.47
2022-11-12T06:31:09.002Z,99119.78
2022-11-12T06:33:55.227Z,99120.60
2022-11-12T06:36:41.374Z,99125.20
2022-11-12T06:39:27.429Z,99117.16
2022-11-12T06:42:13.352Z,99116.08
2022-11-12T06:44:59.727Z,99126.34
2022-11-12T06:47:45.775Z,99130.92
2022-11-12T06:50:31.696Z,99125.83
2022-11-12T06:53:17.839Z,99126.36
2022-11-12T06:56:06.602Z,99133.91
2022-11-12T06:58:52.511Z,99135.23
2022-11-12T07:01:38.628Z,99131.17
2022-11-12T07:04:25.714Z,99133.61
2022-11-12T07:07:12.244Z,99136.56
2022-11-12T07:09:58.313Z,99137.66
2022-11-12T07:12:47.878Z,99133.09
2022-11-12T07:15:32.206Z,99139.83
2022-11-12T07:18:18.156Z,99144.97
2022-11-12T07:21:07.871Z,99143.62
2022-11-12T07:23:54.589Z,99146.09
2022-11-12T07:26:46.056Z,99146.64
2022-11-12T07:29:46.296Z,99148.82
2022-11-12T07:32:16.422Z,99148.86
2022-11-12T07:35:02.493Z,99152.41
2022-11-12T07:37:48.760Z,99151.61
2022-11-12T07:40:34.873Z,99145.95
2022-11-12T07:43:21.130Z,99144.58
2022-11-12T07:46:11.882Z,99149.16
2022-11-12T07:48:58.468Z,99145.08
2022-11-12T07:51:44.145Z,99156.95
2022-11-12T07:54:30.315Z,99156.40
2022-11-12T07:57:16.374Z,99153.94
2022-11-12T08:00:03.327Z,99151.99
2022-11-12T08:02:49.445Z,99149.81
2022-11-12T08:05:35.610Z,99150.59
2022-11-12T08:08:21.648Z,99153.27
2022-11-12T08:11:08.671Z,99151.88
2022-11-12T08:13:54.671Z,99154.84
2022-11-12T08:16:40.460Z,99157.03
2022-11-12T08:19:26.877Z,99162.73
2022-11-12T08:22:13.384Z,99158.12
2022-11-12T08:24:59.364Z,99167.02
2022-11-12T08:27:45.767Z,99164.05
2022-11-12T08:30:31.634Z,99164.02
2022-11-12T08:33:17.835Z,99159.93
2022-11-12T08:36:06.324Z,99159.90
2022-11-12T08:38:53.752Z,99164.97
2022-11-12T08:41:39.683Z,99169.25
2022-11-12T08:44:26.137Z,99168.66
2022-11-12T08:47:12.324Z,99170.20
2022-11-12T08:49:58.054Z,99173.41
2022-11-12T08:52:44.035Z,99176.34
2022-11-12T08:55:30.679Z,99179.28
2022-11-12T08:58:16.712Z,99180.84
2022-11-12T09:01:07.662Z,99182.69
2022-11-12T09:03:53.783Z,99184.35
2022-11-12T09:06:39.824Z,99185.95
2022-11-12T09:09:26.325Z,99185.20
2022-11-12T09:12:19.230Z,99183.65
2022-11-12T09:15:35.655Z,99183.11
2022-11-12T09:17:56.092Z,99189.92
2022-11-12T09:20:42.326Z,99189.12
2022-11-12T09:23:28.949Z,99194.54
2022-11-12T09:26:14.521Z,99188.07
2022-11-12T09:29:00.120Z,99188.91
2022-11-12T09:31:45.808Z,99187.75
2022-11-12T09:34:32.062Z,99179.89
2022-11-12T09:37:17.996Z,99183.11
2022-11-12T09:40:06.339Z,99181.75
2022-11-12T09:42:53.081Z,99177.06
2022-11-12T09:45:40.560Z,99174.61
2022-11-12T09:48:36.490Z,99171.06
2022-11-12T09:51:39.277Z,99172.11
2022-11-12T09:54:30.011Z,99170.25
2022-11-12T09:57:15.637Z,99165.38
2022-11-12T10:00:03.006Z,99168.66
2022-11-12T10:03:15.246Z,99166.79
2022-11-12T10:06:19.443Z,99161.08
2022-11-12T10:09:18.063Z,99164.88
2022-11-12T10:12:33.567Z,99157.91
2022-11-12T10:16:20.126Z,99162.87
2022-11-12T10:19:35.795Z,99161.78
2022-11-12T10:22:35.960Z,99148.99
2022-11-12T10:25:22.253Z,99149.73
2022-11-12T10:28:26.480Z,99152.58
2022-11-12T10:31:16.707Z,99151.72
2022-11-12T10:34:18.184Z,99153.31
2022-11-12T10:37:18.594Z,99148.89
2022-11-12T10:40:31.855Z,99149.38
2022-11-12T10:43:24.671Z,99151.46
2022-11-12T10:46:24.335Z,99155.44
2022-11-12T10:49:21.655Z,99153.05
2022-11-12T10:52:21.657Z,99153.98
2022-11-12T10:55:19.032Z,99152.39
2022-11-12T10:58:20.884Z,99152.14
2022-11-12T11:01:14.082Z,99150.11
2022-11-12T11:04:00.874Z,99141.28
2022-11-12T11:06:46.929Z,99136.90
2022-11-12T11:09:34.323Z,99140.14
2022-11-12T11:12:30.774Z,99138.97
2022-11-12T11:15:23.266Z,99142.69
2022-11-12T11:18:13.915Z,99134.73
2022-11-12T11:21:42.258Z,99133.91
2022-11-12T11:24:50.940Z,99135.18
2022-11-12T11:28:14.341Z,99139.50
2022-11-12T11:31:14.636Z,99134.16
2022-11-12T11:34:34.905Z,99131.63
2022-11-12T11:37:35.044Z,99131.54
2022-11-12T11:40:37.520Z,99126.16
2022-11-12T11:43:44.051Z,99125.55
2022-11-12T11:46:41.353Z,99128.00
2022-11-12T11:50:05.713Z,99120.59
2022-11-12T11:53:17.513Z,99119.23
2022-11-12T11:56:14.707Z,99117.50
2022-11-12T11:59:41.018Z,99117.48
2022-11-12T12:03:09.300Z,99109.56
2022-11-12T12:06:26.314Z,99107.88
2022-11-12T12:09:29.162Z,99110.59
2022-11-12T12:13:00.773Z,99107.84
2022-11-12T12:16:04.194Z,99111.86
2022-11-12T12:18:58.193Z,99111.04
2022-11-12T12:21:46.919Z,99109.91
2022-11-12T12:24:44.351Z,99103.92
2022-11-12T12:27:38.345Z,99100.09
2022-11-12T12:30:25.034Z,99108.73
2022-11-12T12:33:36.704Z,99105.00
2022-11-12T12:36:33.731Z,99105.00
2022-11-12T12:39:37.272Z,99102.98
2022-11-12T12:42:50.877Z,99105.88
2022-11-12T12:45:46.548Z,99106.60
2022-11-12T12:48:36.613Z,99104.97
2022-11-12T12:51:23.220Z,99103.27
2022-11-12T12:54:36.441Z,99111.00
2022-11-12T12:57:36.949Z,99112.27
2022-11-12T13:00:41.016Z,99114.95
2022-11-12T13:04:07.028Z,99121.20
2022-11-12T13:06:54.362Z,99127.13
2022-11-12T13:09:40.730Z,99123.69
2022-11-12T13:13:08.695Z,99127.88
2022-11-12T13:15:57.448Z,99124.23
2022-11-12T13:18:51.403Z,99120.71
2022-11-12T13:21:37.402Z,99121.52
2022-11-12T13:24:48.155Z,99118.27
2022-11-12T13:27:48.669Z,99117.75
2022-11-12T13:30:42.959Z,99118.55
2022-11-12T13:33:32.375Z,99111.45
2022-11-12T13:36:26.165Z,99114.47
2022-11-12T13:39:18.792Z,99110.52
2022-11-12T13:42:35.833Z,99110.30
2022-11-12T13:45:27.208Z,99106.86
2022-11-12T13:48:18.768Z,99111.53
2022-11-12T13:51:25.446Z,99105.83
2022-11-12T13:54:38.914Z,99107.46
2022-11-12T13:57:31.868Z,99108.73
2022-11-12T14:00:23.356Z,99108.73
2022-11-12T14:03:14.681Z,99107.46
2022-11-12T14:06:06.415Z,99112.39
2022-11-12T14:09:01.327Z,99114.25
2022-11-12T14:12:45.063Z,99110.23
2022-11-12T14:15:48.881Z,99101.86
2022-11-12T14:19:04.356Z,99107.02
2022-11-12T14:22:03.737Z,99100.78
2022-11-12T14:24:54.526Z,99095.41
2022-11-12T14:27:40.728Z,99091.99
2022-11-12T14:30:31.463Z,99089.38
2022-11-12T14:33:21.069Z,99089.25
2022-11-12T14:36:14.646Z,99096.73
2022-11-12T14:39:01.245Z,99093.33
2022-11-12T14:41:48.739Z,99091.83
2022-11-12T14:44:37.734Z,99089.25
2022-11-12T14:47:24.559Z,99092.34
2022-11-12T14:50:39.196Z,99084.84
2022-11-12T14:53:32.049Z,99085.71
2022-11-12T14:56:35.159Z,99083.03
2022-11-12T14:59:17.984Z,99085.79
2022-11-12T15:02:33.545Z,99084.15
2022-11-12T15:05:21.800Z,99087.45
2022-11-12T15:08:12.133Z,99083.11
2022-11-12T15:11:30.673Z,99085.33
2022-11-12T15:14:25.249Z,99091.36
2022-11-12T15:17:33.986Z,99090.62
2022-11-12T15:20:20.748Z,99095.86
2022-11-12T15:23:12.527Z,99093.52
2022-11-12T15:26:00.332Z,99099.00
2022-11-12T15:29:32.696Z,99090.97
2022-11-12T15:32:24.264Z,99102.37
2022-11-12T15:35:30.060Z,99106.27
2022-11-12T15:38:37.976Z,99106.06
2022-11-12T15:41:28.917Z,99111.01
2022-11-12T15:44:14.947Z,99116.78
2022-11-12T15:47:01.532Z,99127.66
2022-11-12T15:49:56.478Z,99125.78
2022-11-12T15:52:42.926Z,99136.65
2022-11-12T15:55:28.715Z,99133.16
2022-11-12T15:58:19.746Z,99132.93
2022-11-12T16:01:06.678Z,99130.79
2022-11-12T16:03:52.646Z,99137.00
2022-11-12T16:06:38.682Z,99135.94
2022-11-12T16:09:25.291Z,99132.98
2022-11-12T16:12:13.255Z,99138.93
2022-11-12T16:14:59.299Z,99130.28
2022-11-12T16:17:48.477Z,99134.33
2022-11-12T16:20:36.406Z,99134.62
2022-11-12T16:23:22.011Z,99134.88
2022-11-12T16:26:11.828Z,99132.39
2022-11-12T16:28:58.028Z,99140.49
2022-11-12T16:31:44.290Z,99141.02
2022-11-12T16:34:30.215Z,99144.28
2022-11-12T16:37:16.810Z,99143.72
2022-11-12T16:40:04.847Z,99145.09
2022-11-12T16:42:50.700Z,99146.14
2022-11-12T16:45:42.447Z,99148.30
2022-11-12T16:48:29.051Z,99149.12
2022-11-12T16:51:17.596Z,99144.25
2022-11-12T16:54:04.200Z,99152.06
2022-11-12T16:56:50.612Z,99148.27
2022-11-12T16:59:36.844Z,99150.69
2022-11-12T17:02:22.746Z,99152.05
2022-11-12T17:05:16.767Z,99158.78
2022-11-12T17:08:02.814Z,99160.39
2022-11-12T17:10:48.516Z,99158.20
2022-11-12T17:13:34.222Z,99167.61
2022-11-12T17:16:19.810Z,99169.74
2022-11-12T17:19:06.010Z,99172.67
2022-11-12T17:21:52.578Z,99179.35
2022-11-12T17:24:38.147Z,99175.29
2022-11-12T17:27:24.147Z,99172.58
2022-11-12T17:30:11.543Z,99177.40
2022-11-12T17:32:59.613Z,99179.27
2022-11-12T17:35:45.318Z,99183.30
2022-11-12T17:38:31.874Z,99184.95
2022-11-12T17:41:18.083Z,99181.69
2022-11-12T17:44:04.945Z,99185.73
2022-11-12T17:46:50.708Z,99184.06
2022-11-12T17:49:37.191Z,99188.11
2022-11-12T17:52:23.205Z,99186.73
2022-11-12T17:55:09.641Z,99180.24
2022-11-12T17:57:55.819Z,99174.59
2022-11-12T18:00:41.603Z,99178.87
2022-11-12T18:03:27.467Z,99178.27
2022-11-12T18:06:17.218Z,99174.20
2022-11-12T18:09:07.709Z,99173.13
2022-11-12T18:11:55.839Z,99173.70
2022-11-12T18:14:41.570Z,99172.95
2022-11-12T18:17:27.840Z,99173.23
2022-11-12T18:20:13.793Z,99171.91
2022-11-12T18:23:00.733Z,99174.66
2022-11-12T18:25:46.929Z,99179.27
2022-11-12T18:28:33.790Z,99172.80
2022-11-12T18:31:21.305Z,99172.23
2022-11-12T18:34:13.371Z,99183.77
2022-11-12T18:36:59.876Z,99179.95
2022-11-12T18:39:46.156Z,99180.19
2022-11-12T18:42:35.762Z,99184.23
2022-11-12T18:45:22.095Z,99180.45
2022-11-12T18:48:07.917Z,99174.83
2022-11-12T18:50:59.944Z,99178.84
2022-11-12T18:53:47.093Z,99176.13
2022-11-12T18:56:32.871Z,99178.76
2022-11-12T18:59:18.841Z,99171.73
2022-11-12T19:02:05.903Z,99171.13
2022-11-12T19:04:52.088Z,99172.98
2022-11-12T19:07:37.646Z,99170.59
2022-11-12T19:10:23.550Z,99168.67
2022-11-12T19:13:09.542Z,99173.22
2022-11-12T19:15:58.092Z,99169.95
2022-11-12T19:18:45.123Z,99182.54
2022-11-12T19:21:31.069Z,99180.08
2022-11-12T19:24:17.253Z,99182.16
2022-11-12T19:27:03.204Z,99181.55
2022-11-12T19:29:49.901Z,99174.52
2022-11-12T19:32:35.608Z,99182.28
2022-11-12T19:35:22.257Z,99182.81
2022-11-12T19:38:08.081Z,99176.86
2022-11-12T19:40:54.475Z,99180.63
2022-11-12T19:43:41.154Z,99179.78
2022-11-12T19:46:26.855Z,99180.35
2022-11-12T19:49:12.571Z,99176.09
2022-11-12T19:51:58.694Z,99186.08
2022-11-12T19:54:45.191Z,99183.44
2022-11-12T19:57:31.421Z,99188.31
2022-11-12T20:00:17.915Z,99195.34
2022-11-12T20:03:04.565Z,99189.16
2022-11-12T20:05:51.915Z,99191.34
2022-11-12T20:08:38.250Z,99193.07
2022-11-12T20:11:24.110Z,99203.30
2022-11-12T20:14:09.887Z,99203.91
2022-11-12T20:16:55.886Z,99201.22
2022-11-12T20:19:42.031Z,99206.88
2022-11-12T20:22:32.261Z,99204.41
2022-11-12T20:25:18.520Z,99206.00
2022-11-12T20:28:05.063Z,99196.80
2022-11-12T20:30:50.885Z,99196.80
2022-11-12T20:33:42.015Z,99193.81
2022-11-12T20:36:25.074Z,99193.70
2022-11-12T20:39:11.458Z,99196.08
2022-11-12T20:41:58.019Z,99187.97
2022-11-12T20:44:44.203Z,99187.89
2022-11-12T20:47:30.463Z,99190.23
2022-11-12T20:50:16.915Z,99185.87
2022-11-12T20:53:02.891Z,99193.06
2022-11-12T20:55:48.357Z,99195.70
2022-11-12T20:58:34.437Z,99195.92
2022-11-12T21:01:23.534Z,99196.38
2022-11-12T21:04:12.092Z,99200.86
2022-11-12T21:07:02.371Z,99201.62
2022-11-12T21:09:45.926Z,99208.02
2022-11-12T21:12:31.903Z,99211.16
2022-11-12T21:15:18.620Z,99210.55
2022-11-12T21:18:04.887Z,99211.47
2022-11-12T21:20:52.076Z,99214.59
2022-11-12T21:23:40.961Z,99217.98
2022-11-12T21:26:26.834Z,99212.48
2022-11-12T21:29:18.694Z,99210.21
2022-11-12T21:32:01.688Z,99211.44
2022-11-12T21:34:48.182Z,99212.17
2022-11-12T21:37:34.035Z,99215.39
2022-11-12T21:40:21.614Z,99217.55
2022-11-12T21:43:07.368Z,99226.64
2022-11-12T21:45:53.457Z,99225.81
2022-11-12T21:48:40.139Z,99224.95
2022-11-12T21:51:28.917Z,99223.61
2022-11-12T21:54:14.574Z,99224.16
2022-11-12T21:57:00.442Z,99223.67
2022-11-12T21:59:46.508Z,99220.77
2022-11-12T22:02:32.945Z,99215.41
2022-11-12T22:05:18.892Z,99221.44
2022-11-12T22:08:05.142Z,99216.92
2022-11-12T22:10:51.229Z,99225.81
2022-11-12T22:13:38.305Z,99223.13
2022-11-12T22:16:28.703Z,99227.36
2022-11-12T22:19:15.576Z,99234.21
2022-11-12T22:22:01.744Z,99234.88
2022-11-12T22:24:47.984Z,99236.91
2022-11-12T22:27:33.984Z,99233.28
2022-11-12T22:30:19.784Z,99233.16
2022-11-12T22:33:05.979Z,99238.77
2022-11-12T22:35:52.345Z,99234.70
2022-11-12T22:38:40.874Z,99242.67
2022-11-12T22:41:29.981Z,99240.46
2022-11-12T22:44:16.363Z,99230.41
2022-11-12T22:47:02.368Z,99236.47
2022-11-12T22:49:48.454Z,99230.97
2022-11-12T22:52:34.806Z,99230.23
2022-11-12T22:55:20.886Z,99241.13
2022-11-12T22:58:07.064Z,99239.45
2022-11-12T23:00:53.176Z,99242.94
2022-11-12T23:03:39.099Z,99239.05
2022-11-12T23:06:26.511Z,99233.59
2022-11-12T23:09:16.749Z,99245.85
2022-11-12T23:12:02.930Z,99245.94
2022-11-12T23:14:49.013Z,99242.58
2022-11-12T23:17:34.823Z,99234.62
2022-11-12T23:20:20.863Z,99240.45
2022-11-12T23:23:07.752Z,99238.23
2022-11-12T23:25:53.627Z,99232.07
2022-11-12T23:28:39.785Z,99235.24
2022-11-12T23:31:29.581Z,99233.84
2022-11-12T23:34:15.362Z,99235.92
2022-11-12T23:37:01.299Z,99238.29
2022-11-12T23:39:47.227Z,99232.34
2022-11-12T23:42:33.410Z,99236.88
2022-11-12T23:45:19.453Z,99236.11
2022-11-12T23:48:05.951Z,99228.66
2022-11-12T23:51:06.058Z,99225.80
2022-11-12T23:53:52.032Z,99223.13
2022-11-12T23:56:38.214Z,99215.02
2022-11-12T23:59:24.106Z,99218.23
